Parkin, Arkansas
Current Conditions -  °F | °C
As of 3:53 AM on Saturday 20 Dec 2014 (Local Time) from KAWM Reporting Station
Overcast Overcast  
Wind Chill: 38°   Ceiling: 6000
Heat Index: 38°   Visibility: 9mi
Dew Point: 36°   Wind: 3mph
Humidity: 93%   Direction: 350°N
Pressure: 30.23"   Gusts: NA
Location:  35.26°N, 90.57°W
Report Text: KAWM 200953Z AUTO 35003KT 9SM OVC060 03/02 A3023 RMK AO2 SLP238 T00330022
Loading
Personal Weather Stations






























Interactive Weather Map New forecast layout! Learn more

10-Day Weather Forecast

Advertisements
Track Severe Weather on mobile